Time;durP1;ratioP1;P1;durP2;ratioP2;P2;SDS_P1;SDS_P2;PMS_P1;PMS_P2;Temp;Humidity;BMP_temperature;BMP_pressure;BME280_temperature;BME280_humidity;BME280_pressure;Samples;Min_cycle;Max_cycle;Signal;HPM_P1;HPM_P2
2023/01/04 00:01:28;;;;;;;;;;;;;;;17.10;60.55;101119.94;7253038;19;152727;-57
2023/01/04 00:03:55;;;;;;;;;;;;;;;17.09;60.39;101112.69;7252795;19;153249;-58
2023/01/04 00:06:22;;;;;;;;;;;;;;;17.09;60.40;101103.47;7249837;19;153510;-57
2023/01/04 00:08:49;;;;;;;;;;;;;;;17.08;60.57;101105.41;7256341;19;154637;-57
2023/01/04 00:11:17;;;;;;;;;;;;;;;17.08;60.18;101113.78;7254936;19;153414;-57
2023/01/04 00:13:45;;;;;;;;;;;;;;;17.07;60.60;101116.88;7257025;19;153567;-57
2023/01/04 00:16:14;;;;;;;;;;;;;;;17.05;60.33;101108.78;7256643;19;153927;-57
2023/01/04 00:18:42;;;;;;;;;;;;;;;17.05;60.68;101121.91;7254967;19;154545;-59
2023/01/04 00:21:09;;;;;;;;;;;;;;;17.05;60.33;101127.47;7251949;19;153290;-59
2023/01/04 00:23:37;;;;;;;;;;;;;;;17.02;60.63;101128.88;7253419;19;154273;-59
2023/01/04 00:26:06;;;;;;;;;;;;;;;16.99;60.39;101129.44;7251995;19;154361;-57
2023/01/04 00:28:33;;;;;;;;;;;;;;;17.00;60.37;101135.84;7253829;19;153574;-59
2023/01/04 00:31:01;;;;;;;;;;;;;;;17.00;60.58;101135.84;7253840;19;153760;-58
2023/01/04 00:33:28;;;;;;;;;;;;;;;16.99;60.52;101137.00;7262226;19;154331;-59
2023/01/04 00:35:55;;;;;;;;;;;;;;;16.98;60.57;101130.56;7253038;19;155488;-59
2023/01/04 00:38:22;;;;;;;;;;;;;;;16.97;60.28;101120.50;7252141;19;154171;-58
2023/01/04 00:40:49;;;;;;;;;;;;;;;16.96;60.66;101124.41;7253140;19;153753;-59
2023/01/04 00:43:15;;;;;;;;;;;;;;;16.95;60.34;101121.91;7251374;19;155617;-58
2023/01/04 00:45:43;;;;;;;;;;;;;;;16.95;60.70;101119.09;7253244;19;154953;-58
2023/01/04 00:48:09;;;;;;;;;;;;;;;16.93;60.53;101116.63;7255097;19;152801;-58
2023/01/04 00:50:36;;;;;;;;;;;;;;;16.94;60.32;101123.03;7253245;19;158765;-58
2023/01/04 00:53:03;;;;;;;;;;;;;;;16.92;60.47;101123.31;7252137;19;154168;-58
2023/01/04 00:55:30;;;;;;;;;;;;;;;16.91;60.64;101118.84;7260438;19;154097;-58
2023/01/04 00:57:57;;;;;;;;;;;;;;;16.90;60.36;101119.94;7257491;19;152952;-58
2023/01/04 01:00:24;;;;;;;;;;;;;;;16.89;60.41;101102.38;7257105;19;152929;-58
2023/01/04 01:02:51;;;;;;;;;;;;;;;16.89;60.68;101105.19;7256986;19;154491;-59
2023/01/04 01:05:18;;;;;;;;;;;;;;;16.87;60.63;101115.78;7253373;19;154187;-59
2023/01/04 01:07:45;;;;;;;;;;;;;;;16.87;60.43;101092.59;7253318;19;154366;-59
2023/01/04 01:10:12;;;;;;;;;;;;;;;16.87;60.79;101095.41;7253946;19;153771;-59
2023/01/04 01:12:39;;;;;;;;;;;;;;;16.86;60.55;101082.56;7248483;19;153915;-58
2023/01/04 01:15:06;;;;;;;;;;;;;;;16.86;60.64;101107.66;7253771;19;155275;-59
2023/01/04 01:17:33;;;;;;;;;;;;;;;16.84;60.95;101105.19;7258267;19;154201;-59
2023/01/04 01:20:00;;;;;;;;;;;;;;;16.84;60.81;101099.59;7250424;19;154409;-58
2023/01/04 01:22:27;;;;;;;;;;;;;;;16.83;60.98;101097.91;7252610;19;152645;-58
2023/01/04 01:24:54;;;;;;;;;;;;;;;16.83;60.87;101105.44;7249820;19;154302;-58
2023/01/04 01:27:21;;;;;;;;;;;;;;;16.82;60.81;101112.13;7252946;19;153344;-57
2023/01/04 01:29:48;;;;;;;;;;;;;;;16.81;60.91;101102.09;7255522;19;153188;-57
2023/01/04 01:32:15;;;;;;;;;;;;;;;16.80;61.09;101106.03;7252885;19;155527;-57
2023/01/04 01:34:42;;;;;;;;;;;;;;;16.78;60.92;101117.44;7252838;19;152260;-58
2023/01/04 01:37:09;;;;;;;;;;;;;;;16.78;61.14;101123.03;7250451;19;154985;-58
2023/01/04 01:39:36;;;;;;;;;;;;;;;16.77;60.68;101115.75;7258460;19;153678;-57
2023/01/04 01:42:03;;;;;;;;;;;;;;;16.77;60.87;101099.03;7252648;19;155797;-57
2023/01/04 01:44:33;;;;;;;;;;;;;;;16.76;61.11;101122.47;7251167;19;156211;-57
2023/01/04 01:47:00;;;;;;;;;;;;;;;16.77;61.03;101112.13;7252477;19;153573;-57
2023/01/04 01:49:31;;;;;;;;;;;;;;;16.76;61.32;101113.28;7251265;19;153306;-57
2023/01/04 01:52:00;;;;;;;;;;;;;;;16.75;61.22;101119.97;7247662;19;155427;-58
2023/01/04 01:54:30;;;;;;;;;;;;;;;16.75;61.18;101108.81;7252670;19;154113;-57
2023/01/04 01:56:59;;;;;;;;;;;;;;;16.74;61.31;101126.66;7253397;19;154568;-57
2023/01/04 01:59:27;;;;;;;;;;;;;;;16.72;61.21;101109.34;7253315;19;155079;-57
2023/01/04 02:01:54;;;;;;;;;;;;;;;16.73;61.46;101113.81;7257703;19;153662;-57
2023/01/04 02:04:21;;;;;;;;;;;;;;;16.70;61.17;101120.81;7248153;19;153607;-57
2023/01/04 02:06:50;;;;;;;;;;;;;;;16.70;61.58;101145.06;7248445;19;153633;-58
2023/01/04 02:09:18;;;;;;;;;;;;;;;16.69;61.19;101115.50;7249740;19;154520;-57
2023/01/04 02:11:46;;;;;;;;;;;;;;;16.69;61.61;101121.91;7249426;19;154614;-58
2023/01/04 02:16:47;;;;;;;;;;;;;;;16.67;61.48;101124.13;7252546;19;153495;-57
2023/01/04 02:19:26;;;;;;;;;;;;;;;16.69;61.71;101135.03;7248879;19;153985;-57
2023/01/04 02:21:54;;;;;;;;;;;;;;;16.67;61.53;101121.34;7249932;19;153990;-57
2023/01/04 02:24:30;;;;;;;;;;;;;;;16.67;61.44;101126.09;7256097;19;153592;-57
2023/01/04 02:26:58;;;;;;;;;;;;;;;16.67;61.64;101117.75;7251930;19;153588;-57
2023/01/04 02:29:28;;;;;;;;;;;;;;;16.66;61.81;101097.38;7249352;19;153772;-57
2023/01/04 02:31:59;;;;;;;;;;;;;;;16.65;61.60;101112.44;7251114;19;154604;-57
2023/01/04 02:34:29;;;;;;;;;;;;;;;16.64;61.74;101099.59;7252470;19;153669;-55
2023/01/04 02:36:59;;;;;;;;;;;;;;;16.64;61.83;101096.81;7248149;19;152692;-57
2023/01/04 02:39:32;;;;;;;;;;;;;;;16.64;61.58;101115.47;7249394;19;156447;-57
2023/01/04 02:42:02;;;;;;;;;;;;;;;16.64;61.94;101107.13;7251524;19;153071;-57
2023/01/04 02:47:07;;;;;;;;;;;;;;;16.62;61.66;101093.47;7250918;19;154167;-57
2023/01/04 02:52:05;;;;;;;;;;;;;;;16.60;61.78;101084.53;7242603;19;154776;-57
2023/01/04 02:54:32;;;;;;;;;;;;;;;16.61;61.79;101077.00;7251530;19;153318;-57
2023/01/04 02:57:02;;;;;;;;;;;;;;;16.61;61.78;101071.44;7249166;19;154269;-57
2023/01/04 02:59:34;;;;;;;;;;;;;;;16.61;61.58;101052.75;7247255;19;154858;-57
2023/01/04 03:07:23;;;;;;;;;;;;;;;16.59;61.55;101024.28;7252957;19;153344;-58
2023/01/04 03:09:55;;;;;;;;;;;;;;;16.59;61.67;101035.44;7250762;19;154386;-58
2023/01/04 03:14:59;;;;;;;;;;;;;;;16.58;61.85;101027.38;7248948;19;152494;-58
2023/01/04 03:17:28;;;;;;;;;;;;;;;16.57;61.75;101059.13;7250690;19;153211;-58
2023/01/04 03:19:57;;;;;;;;;;;;;;;16.57;61.69;101034.88;7248535;19;153161;-58
2023/01/04 03:37:42;;;;;;;;;;;;;;;16.55;62.32;101019.50;7248768;19;153669;-58
2023/01/04 03:50:25;;;;;;;;;;;;;;;16.53;62.12;100993.88;7245770;19;153894;-57
2023/01/04 03:52:52;;;;;;;;;;;;;;;16.52;62.56;100998.59;7255366;19;154065;-57
2023/01/04 03:55:20;;;;;;;;;;;;;;;16.51;62.50;101002.50;7245710;19;152479;-57
2023/01/04 03:57:47;;;;;;;;;;;;;;;16.52;62.27;101003.34;7251078;19;154453;-58
2023/01/04 04:00:16;;;;;;;;;;;;;;;16.52;62.51;101000.56;7246989;19;153838;-57
2023/01/04 04:02:44;;;;;;;;;;;;;;;16.51;62.77;101001.66;7249059;19;153223;-58
2023/01/04 04:10:16;;;;;;;;;;;;;;;16.50;62.41;101006.41;7248951;19;154160;-58
2023/01/04 04:12:43;;;;;;;;;;;;;;;16.49;62.81;100999.16;7252134;19;153691;-57
2023/01/04 04:15:11;;;;;;;;;;;;;;;16.50;62.80;100997.19;7262060;19;154386;-58
2023/01/04 04:17:38;;;;;;;;;;;;;;;16.50;62.74;101006.41;7255890;19;152961;-59
2023/01/04 04:20:05;;;;;;;;;;;;;;;16.49;62.87;100985.19;7251989;19;155539;-58
2023/01/04 04:22:33;;;;;;;;;;;;;;;16.49;63.00;100996.34;7255186;19;153439;-57
2023/01/04 04:25:00;;;;;;;;;;;;;;;16.48;63.01;100991.91;7256128;19;154521;-57
2023/01/04 04:27:27;;;;;;;;;;;;;;;16.50;63.04;100994.41;7250392;19;153690;-59
2023/01/04 04:29:54;;;;;;;;;;;;;;;16.48;63.25;100991.09;7255659;19;153236;-57
2023/01/04 04:32:21;;;;;;;;;;;;;;;16.49;63.35;100998.34;7254907;19;154234;-57
2023/01/04 04:34:48;;;;;;;;;;;;;;;16.48;62.93;100999.44;7254462;19;152512;-57
2023/01/04 04:37:15;;;;;;;;;;;;;;;16.48;63.16;100999.44;7259176;19;154024;-57
2023/01/04 04:39:42;;;;;;;;;;;;;;;16.47;63.15;100993.03;7253567;19;154492;-57
2023/01/04 04:42:09;;;;;;;;;;;;;;;16.46;63.42;100991.34;7254591;19;153677;-57
2023/01/04 04:44:37;;;;;;;;;;;;;;;16.48;63.49;100988.28;7252297;19;154711;-57
2023/01/04 04:47:04;;;;;;;;;;;;;;;16.46;63.28;100997.75;7254104;19;154058;-57
2023/01/04 04:49:32;;;;;;;;;;;;;;;16.45;63.60;100990.50;7252959;19;153652;-57
2023/01/04 04:52:00;;;;;;;;;;;;;;;16.44;63.46;100994.41;7248920;19;153694;-57
2023/01/04 04:54:27;;;;;;;;;;;;;;;16.45;63.68;101007.25;7253817;19;154133;-56
2023/01/04 04:56:54;;;;;;;;;;;;;;;16.46;63.82;101013.66;7261958;19;152465;-57
2023/01/04 04:59:21;;;;;;;;;;;;;;;16.46;63.62;101010.88;7254249;19;153455;-57
2023/01/04 05:01:48;;;;;;;;;;;;;;;16.44;63.59;100999.19;7251235;19;154688;-57
2023/01/04 05:04:18;;;;;;;;;;;;;;;16.45;63.79;100998.88;7255835;19;152866;-58
2023/01/04 05:06:46;;;;;;;;;;;;;;;16.44;63.64;101005.56;7249544;19;154220;-57
2023/01/04 05:09:13;;;;;;;;;;;;;;;16.45;63.81;101003.59;7246824;19;153532;-58
2023/01/04 05:14:11;;;;;;;;;;;;;;;16.44;63.97;101007.53;7251697;19;155453;-57
2023/01/04 05:16:38;;;;;;;;;;;;;;;16.43;63.79;101001.13;7255357;19;153538;-57
2023/01/04 05:19:05;;;;;;;;;;;;;;;16.43;63.95;101005.84;7258619;19;154549;-57
2023/01/04 05:21:32;;;;;;;;;;;;;;;16.43;64.23;101003.06;7248722;19;152420;-56
2023/01/04 05:24:00;;;;;;;;;;;;;;;16.43;64.01;101017.84;7255111;19;155582;-57
2023/01/04 05:26:27;;;;;;;;;;;;;;;16.43;64.18;101020.66;7251785;19;154287;-57
2023/01/04 05:28:54;;;;;;;;;;;;;;;16.42;63.92;101010.59;7251599;19;153691;-57
2023/01/04 05:31:21;;;;;;;;;;;;;;;16.43;64.09;101009.50;7250616;19;154757;-57
2023/01/04 05:33:48;;;;;;;;;;;;;;;16.43;63.88;101011.44;7253207;19;154018;-57
2023/01/04 05:36:15;;;;;;;;;;;;;;;16.41;64.30;101017.28;7251503;19;153009;-57
2023/01/04 05:38:43;;;;;;;;;;;;;;;16.42;64.04;101018.97;7249863;19;152751;-57
2023/01/04 05:43:40;;;;;;;;;;;;;;;16.42;64.38;101007.81;7252076;19;155612;-57
2023/01/04 05:46:07;;;;;;;;;;;;;;;16.40;64.43;100998.88;7250241;19;154617;-57
2023/01/04 05:48:34;;;;;;;;;;;;;;;16.40;64.25;100996.09;7251890;19;152998;-57
2023/01/04 05:51:01;;;;;;;;;;;;;;;16.41;64.34;100994.13;7248061;19;155224;-57
2023/01/04 05:53:28;;;;;;;;;;;;;;;16.41;64.47;101005.28;7249483;19;155277;-57
2023/01/04 05:55:55;;;;;;;;;;;;;;;16.39;64.49;101008.38;7253553;19;153063;-57
2023/01/04 05:58:22;;;;;;;;;;;;;;;16.40;64.32;101009.19;7252185;19;154240;-57
2023/01/04 06:00:49;;;;;;;;;;;;;;;16.39;64.26;101000.00;7249860;19;154636;-57
2023/01/04 06:03:16;;;;;;;;;;;;;;;16.39;64.50;101007.53;7260846;19;153515;-57
2023/01/04 06:05:47;;;;;;;;;;;;;;;16.40;64.49;101000.81;7247078;19;155460;-57
2023/01/04 06:08:14;;;;;;;;;;;;;;;16.38;64.80;100991.91;7250899;19;154035;-57
2023/01/04 06:10:42;;;;;;;;;;;;;;;16.38;64.71;101012.28;7252562;19;153704;-57
2023/01/04 06:13:09;;;;;;;;;;;;;;;16.39;64.81;101002.81;7249503;19;153482;-57
2023/01/04 06:15:36;;;;;;;;;;;;;;;16.39;64.52;101004.75;7252915;19;154087;-57
2023/01/04 06:18:09;;;;;;;;;;;;;;;16.39;64.53;100997.22;7251968;19;152618;-57
2023/01/04 06:20:39;;;;;;;;;;;;;;;16.39;64.68;101004.75;7250722;19;153825;-57
2023/01/04 06:23:07;;;;;;;;;;;;;;;16.38;64.50;101000.28;7251392;19;153861;-57
2023/01/04 06:25:34;;;;;;;;;;;;;;;16.38;65.06;101003.06;7257505;19;153613;-57
2023/01/04 06:28:01;;;;;;;;;;;;;;;16.38;64.99;101001.13;7251407;19;153268;-57
2023/01/04 06:30:29;;;;;;;;;;;;;;;16.39;64.81;100999.19;7248440;19;153828;-57
2023/01/04 06:32:56;;;;;;;;;;;;;;;16.37;64.76;100991.06;7250604;19;155843;-57
2023/01/04 06:35:23;;;;;;;;;;;;;;;16.39;65.21;101007.53;7247597;19;152131;-57
2023/01/04 06:37:50;;;;;;;;;;;;;;;16.38;65.01;101011.44;7251654;19;154598;-57
2023/01/04 06:40:17;;;;;;;;;;;;;;;16.39;64.95;101013.13;7247908;19;154668;-57
2023/01/04 06:42:44;;;;;;;;;;;;;;;16.37;65.35;100999.44;7251753;19;153553;-57
2023/01/04 06:45:12;;;;;;;;;;;;;;;16.38;64.99;101011.44;7249257;19;153824;-57
2023/01/04 06:47:39;;;;;;;;;;;;;;;16.37;65.01;101010.59;7258429;19;153418;-57
2023/01/04 06:50:07;;;;;;;;;;;;;;;16.36;65.25;101003.34;7249641;19;154020;-57
2023/01/04 06:52:34;;;;;;;;;;;;;;;16.36;65.36;101011.69;7246740;19;153457;-57
2023/01/04 06:55:01;;;;;;;;;;;;;;;16.36;65.23;101014.50;7248206;19;153553;-57
2023/01/04 06:57:29;;;;;;;;;;;;;;;16.36;65.28;101014.50;7251470;19;154115;-57
2023/01/04 06:59:56;;;;;;;;;;;;;;;16.36;65.53;101006.13;7248708;19;153183;-57
2023/01/04 07:02:24;;;;;;;;;;;;;;;16.35;65.48;101021.19;7252169;19;152174;-57
2023/01/04 07:04:51;;;;;;;;;;;;;;;16.35;65.36;101023.97;7252340;19;154280;-57
2023/01/04 07:07:18;;;;;;;;;;;;;;;16.35;65.61;101034.31;7250611;19;155076;-57
2023/01/04 07:09:45;;;;;;;;;;;;;;;16.35;65.70;101046.28;7250771;19;153356;-57
2023/01/04 07:12:12;;;;;;;;;;;;;;;16.35;65.73;101045.47;7247008;19;153406;-57
2023/01/04 07:14:39;;;;;;;;;;;;;;;16.35;65.79;101049.06;7250374;19;153726;-57
2023/01/04 07:17:06;;;;;;;;;;;;;;;16.35;65.66;101046.28;7250252;19;154017;-57
2023/01/04 07:19:33;;;;;;;;;;;;;;;16.34;65.59;101055.78;7245057;19;153452;-57
2023/01/04 07:22:01;;;;;;;;;;;;;;;16.35;65.80;101042.66;7247559;19;153174;-57
2023/01/04 07:24:28;;;;;;;;;;;;;;;16.35;65.73;101046.28;7250524;19;153669;-57
2023/01/04 07:26:58;;;;;;;;;;;;;;;16.34;65.63;101057.72;7245394;19;153612;-59
2023/01/04 07:29:26;;;;;;;;;;;;;;;16.34;65.68;101066.09;7255883;19;154062;-58
2023/01/04 07:31:53;;;;;;;;;;;;;;;16.35;65.71;101062.19;7247006;19;154342;-58
2023/01/04 07:34:22;;;;;;;;;;;;;;;16.34;65.71;101047.41;7248317;19;153471;-58
2023/01/04 07:36:49;;;;;;;;;;;;;;;16.34;66.14;101058.56;7247659;19;154803;-58
2023/01/04 07:39:17;;;;;;;;;;;;;;;16.35;66.33;101064.97;7246812;19;155104;-58
2023/01/04 07:41:44;;;;;;;;;;;;;;;16.33;65.93;101061.63;7246857;19;154175;-59
2023/01/04 07:44:12;;;;;;;;;;;;;;;16.33;65.98;101076.41;7249161;19;153622;-58
2023/01/04 07:46:39;;;;;;;;;;;;;;;16.34;66.30;101082.81;7246140;19;153653;-58
2023/01/04 07:49:09;;;;;;;;;;;;;;;16.34;66.60;101077.25;7254921;19;154069;-58
2023/01/04 07:51:43;;;;;;;;;;;;;;;16.33;66.07;101079.19;7258648;19;153415;-57
2023/01/04 07:54:10;;;;;;;;;;;;;;;16.33;66.28;101078.34;7256229;19;153908;-57
2023/01/04 07:56:37;;;;;;;;;;;;;;;16.33;66.14;101079.19;7256250;19;153854;-57
2023/01/04 07:59:06;;;;;;;;;;;;;;;16.33;66.48;101084.75;7256046;19;154601;-57
2023/01/04 08:01:34;;;;;;;;;;;;;;;16.34;66.65;101099.53;7254108;19;153287;-58
2023/01/04 08:04:01;;;;;;;;;;;;;;;16.32;66.71;101091.44;7258926;19;154661;-57
2023/01/04 08:06:28;;;;;;;;;;;;;;;16.33;66.47;101093.13;7252287;19;154392;-57
2023/01/04 08:08:56;;;;;;;;;;;;;;;16.33;66.46;101081.13;7257579;19;154533;-57
2023/01/04 08:11:24;;;;;;;;;;;;;;;16.33;66.67;101084.75;7255499;19;153701;-57
2023/01/04 08:13:51;;;;;;;;;;;;;;;16.32;66.36;101085.88;7261650;19;154084;-57
2023/01/04 08:16:20;;;;;;;;;;;;;;;16.31;66.78;101092.56;7253375;19;154648;-57
2023/01/04 08:18:51;;;;;;;;;;;;;;;16.31;66.70;101092.56;7254787;19;153127;-57
2023/01/04 08:21:18;;;;;;;;;;;;;;;16.31;66.76;101091.72;7250329;19;152316;-57
2023/01/04 08:23:46;;;;;;;;;;;;;;;16.31;66.91;101098.13;7254736;19;153584;-57
2023/01/04 08:26:15;;;;;;;;;;;;;;;16.31;66.51;101095.34;7251538;19;153870;-57
2023/01/04 08:28:42;;;;;;;;;;;;;;;16.32;66.45;101101.75;7253697;19;153135;-57
2023/01/04 08:31:10;;;;;;;;;;;;;;;16.30;66.40;101102.06;7252441;19;153412;-57
2023/01/04 08:33:38;;;;;;;;;;;;;;;16.31;66.44;101109.28;7252671;19;154129;-57
2023/01/04 08:36:07;;;;;;;;;;;;;;;16.31;66.76;101109.28;7258968;19;153456;-57
2023/01/04 08:38:34;;;;;;;;;;;;;;;16.30;66.52;101113.19;7253248;19;154610;-57
2023/01/04 08:41:21;;;;;;;;;;;;;;;16.31;66.55;101114.00;7254729;19;154254;-57
2023/01/04 08:44:09;;;;;;;;;;;;;;;16.30;66.43;101126.31;7254032;19;155473;-57
2023/01/04 08:46:37;;;;;;;;;;;;;;;16.30;66.54;101129.94;7252775;19;153732;-57
2023/01/04 08:49:04;;;;;;;;;;;;;;;16.29;66.64;101128.25;7254968;19;152970;-57
2023/01/04 08:51:31;;;;;;;;;;;;;;;16.29;66.74;101130.19;7252748;19;153850;-57
2023/01/04 08:53:58;;;;;;;;;;;;;;;16.29;66.75;101130.19;7251381;19;155561;-57
2023/01/04 08:56:25;;;;;;;;;;;;;;;16.30;66.90;101134.66;7262823;19;153422;-58
2023/01/04 08:58:53;;;;;;;;;;;;;;;16.30;66.56;101134.66;7248603;19;155796;-57
2023/01/04 09:01:19;;;;;;;;;;;;;;;16.29;66.34;101136.63;7251780;19;153559;-57
2023/01/04 09:03:47;;;;;;;;;;;;;;;16.28;66.69;101129.34;7255307;19;153658;-57
2023/01/04 09:06:14;;;;;;;;;;;;;;;16.28;66.37;101137.72;7250910;19;156175;-57
2023/01/04 09:08:42;;;;;;;;;;;;;;;16.29;66.46;101130.19;7251514;19;152379;-57
2023/01/04 09:11:11;;;;;;;;;;;;;;;16.29;66.45;101144.97;7251063;19;154274;-57
2023/01/04 09:13:38;;;;;;;;;;;;;;;16.28;66.40;101140.50;7252592;19;153432;-57
2023/01/04 09:16:06;;;;;;;;;;;;;;;16.28;66.66;101136.88;7252044;19;153141;-57
2023/01/04 09:18:34;;;;;;;;;;;;;;;16.28;66.49;101143.28;7259519;19;154965;-57
2023/01/04 09:21:04;;;;;;;;;;;;;;;16.28;66.32;101148.88;7252578;19;154759;-57
2023/01/04 09:23:32;;;;;;;;;;;;;;;16.29;66.67;101152.50;7251419;19;153527;-57
2023/01/04 09:26:04;;;;;;;;;;;;;;;16.28;66.16;101140.50;7249777;19;156253;-58
2023/01/04 09:28:35;;;;;;;;;;;;;;;16.29;66.14;101147.75;7253634;19;153711;-57
2023/01/04 09:31:05;;;;;;;;;;;;;;;16.27;66.30;101147.19;7253646;19;154724;-57
2023/01/04 09:33:33;;;;;;;;;;;;;;;16.29;66.34;101139.41;7252304;19;153742;-57
2023/01/04 09:36:20;;;;;;;;;;;;;;;16.28;66.69;101140.50;7249165;19;153577;-57
2023/01/04 09:38:48;;;;;;;;;;;;;;;16.28;66.13;101150.81;7251426;19;154781;-57
2023/01/04 09:41:18;;;;;;;;;;;;;;;16.27;66.39;101141.63;7259639;19;155506;-57
2023/01/04 09:43:45;;;;;;;;;;;;;;;16.27;66.10;101149.97;7252776;19;154824;-58
2023/01/04 09:46:16;;;;;;;;;;;;;;;16.27;66.22;101152.75;7253031;19;155911;-57
2023/01/04 09:48:44;;;;;;;;;;;;;;;16.27;66.13;101154.72;7252610;19;153199;-57
2023/01/04 09:51:13;;;;;;;;;;;;;;;16.26;66.20;101165.03;7250447;19;153212;-57
2023/01/04 09:53:43;;;;;;;;;;;;;;;16.27;66.08;101163.06;7249426;19;153847;-58
2023/01/04 09:56:15;;;;;;;;;;;;;;;16.27;66.48;101177.00;7253717;19;153357;-57
2023/01/04 09:58:42;;;;;;;;;;;;;;;16.27;66.41;101174.22;7253401;19;155071;-58
2023/01/04 10:01:13;;;;;;;;;;;;;;;16.27;66.18;101171.44;7251549;19;155971;-58
2023/01/04 10:03:46;;;;;;;;;;;;;;;16.26;66.21;101170.59;7260366;19;154850;-57
2023/01/04 10:06:14;;;;;;;;;;;;;;;16.27;66.09;101171.44;7248190;19;153634;-57
2023/01/04 10:08:42;;;;;;;;;;;;;;;16.27;66.14;101179.81;7253409;19;153866;-57
2023/01/04 10:11:18;;;;;;;;;;;;;;;16.26;65.99;101170.59;7252309;19;154365;-57
2023/01/04 10:13:46;;;;;;;;;;;;;;;16.27;66.12;101174.22;7251133;19;154997;-57
2023/01/04 10:16:16;;;;;;;;;;;;;;;16.26;66.24;101176.16;7254352;19;153677;-57
2023/01/04 10:19:04;;;;;;;;;;;;;;;16.26;66.06;101167.81;7251147;19;152930;-57
2023/01/04 10:21:55;;;;;;;;;;;;;;;16.27;66.27;101174.22;7246506;19;156290;-57
2023/01/04 10:24:25;;;;;;;;;;;;;;;16.26;66.18;101167.81;7250971;19;152476;-57
2023/01/04 10:26:58;;;;;;;;;;;;;;;16.26;66.25;101169.78;7257206;19;154029;-58
2023/01/04 10:29:28;;;;;;;;;;;;;;;16.27;66.09;101177.84;7250931;19;153057;-57
2023/01/04 10:32:02;;;;;;;;;;;;;;;16.27;66.20;101186.22;7251387;19;156183;-57
2023/01/04 10:34:31;;;;;;;;;;;;;;;16.26;65.96;101173.38;7248631;19;153474;-57
2023/01/04 10:36:59;;;;;;;;;;;;;;;16.26;66.14;101175.34;7247203;19;153377;-57
2023/01/04 10:39:29;;;;;;;;;;;;;;;16.26;65.93;101176.16;7251789;19;152456;-59
2023/01/04 10:42:05;;;;;;;;;;;;;;;16.26;65.88;101167.81;7250809;19;156526;-58
2023/01/04 10:44:36;;;;;;;;;;;;;;;16.26;66.08;101164.22;7249733;19;154526;-58
2023/01/04 10:47:07;;;;;;;;;;;;;;;16.25;66.12;101166.16;7249796;19;152177;-58
2023/01/04 10:49:37;;;;;;;;;;;;;;;16.26;66.18;101164.22;7258844;19;154148;-58
2023/01/04 10:52:09;;;;;;;;;;;;;;;16.26;66.15;101162.22;7248308;19;154842;-58
2023/01/04 10:54:40;;;;;;;;;;;;;;;16.26;66.27;101165.03;7248974;19;153698;-58
2023/01/04 10:57:11;;;;;;;;;;;;;;;16.27;65.82;101166.69;7247299;19;153804;-58
2023/01/04 10:59:42;;;;;;;;;;;;;;;16.27;66.17;101163.06;7250392;19;153428;-58
2023/01/04 11:02:10;;;;;;;;;;;;;;;16.25;66.29;101168.09;7250101;19;153969;-58
2023/01/04 11:04:38;;;;;;;;;;;;;;;16.26;65.94;101161.44;7250863;19;153916;-58
2023/01/04 11:07:08;;;;;;;;;;;;;;;16.25;66.36;101166.16;7247791;19;154740;-58
2023/01/04 11:09:38;;;;;;;;;;;;;;;16.25;66.04;101159.75;7257186;19;154948;-58
2023/01/04 11:12:07;;;;;;;;;;;;;;;16.25;66.17;101159.75;7246865;19;154013;-58
2023/01/04 11:14:34;;;;;;;;;;;;;;;16.26;66.08;101153.06;7247517;19;153651;-57
2023/01/04 11:17:04;;;;;;;;;;;;;;;16.24;66.11;101156.09;7251140;19;151891;-57
2023/01/04 11:19:31;;;;;;;;;;;;;;;16.24;65.87;101153.31;7249312;19;153528;-57
2023/01/04 11:21:59;;;;;;;;;;;;;;;16.25;66.08;101166.16;7244387;19;152885;-57
2023/01/04 11:24:29;;;;;;;;;;;;;;;16.25;65.82;101160.59;7246960;19;154110;-57
2023/01/04 11:27:01;;;;;;;;;;;;;;;16.25;65.95;101156.94;7251706;19;155071;-56
2023/01/04 11:29:33;;;;;;;;;;;;;;;16.24;66.13;101150.53;7249703;19;155143;-57
2023/01/04 11:32:03;;;;;;;;;;;;;;;16.24;65.82;101144.13;7257263;19;153509;-57
2023/01/04 11:34:34;;;;;;;;;;;;;;;16.24;66.03;101146.91;7248747;19;155582;-57
2023/01/04 11:37:01;;;;;;;;;;;;;;;16.25;65.85;101160.59;7247147;19;153244;-57
2023/01/04 11:39:28;;;;;;;;;;;;;;;16.24;65.94;101152.47;7249745;19;154781;-57
2023/01/04 11:42:01;;;;;;;;;;;;;;;16.24;65.67;101170.03;7249430;19;153653;-57
2023/01/04 11:44:30;;;;;;;;;;;;;;;16.24;65.74;101163.63;7249782;19;154441;-57
2023/01/04 11:47:01;;;;;;;;;;;;;;;16.24;65.98;101170.03;7246487;19;153582;-57
2023/01/04 11:49:32;;;;;;;;;;;;;;;16.23;65.75;101171.16;7247970;19;154890;-57
2023/01/04 11:52:01;;;;;;;;;;;;;;;16.24;65.59;101158.91;7245671;19;153470;-57
2023/01/04 11:54:29;;;;;;;;;;;;;;;16.24;65.73;101153.31;7256510;19;154028;-57
2023/01/04 11:56:59;;;;;;;;;;;;;;;16.25;65.59;101145.81;7249638;19;153650;-57
2023/01/04 11:59:29;;;;;;;;;;;;;;;16.24;65.45;101135.75;7251214;19;153284;-57
2023/01/04 12:01:59;;;;;;;;;;;;;;;16.24;65.82;101130.19;7248056;19;153711;-60
2023/01/04 12:04:28;;;;;;;;;;;;;;;16.22;65.44;101133.22;7248570;19;152775;-57
2023/01/04 12:07:03;;;;;;;;;;;;;;;16.23;65.28;101134.91;7246975;19;153823;-57
2023/01/04 12:09:31;;;;;;;;;;;;;;;16.25;65.48;101137.44;7246161;19;154657;-57
2023/01/04 12:11:59;;;;;;;;;;;;;;;16.24;65.31;101133.81;7245962;19;154199;-57
2023/01/04 12:14:31;;;;;;;;;;;;;;;16.24;65.12;101139.38;7248603;19;153363;-57
2023/01/04 12:17:01;;;;;;;;;;;;;;;16.24;65.24;101136.59;7255885;19;154192;-57
2023/01/04 12:19:29;;;;;;;;;;;;;;;16.24;65.44;101155.28;7246317;19;153902;-56
2023/01/04 12:21:58;;;;;;;;;;;;;;;16.24;65.09;101155.28;7244883;19;153956;-56
2023/01/04 12:24:27;;;;;;;;;;;;;;;16.22;64.93;101161.09;7246199;19;153767;-57
2023/01/04 12:26:55;;;;;;;;;;;;;;;16.24;65.14;101177.56;7250158;19;154471;-57
2023/01/04 12:29:23;;;;;;;;;;;;;;;16.23;65.07;101157.22;7243013;19;156260;-57
2023/01/04 12:31:52;;;;;;;;;;;;;;;16.23;64.83;101157.22;7249812;19;153462;-57
2023/01/04 12:34:20;;;;;;;;;;;;;;;16.23;64.70;101165.56;7251963;19;155411;-57
2023/01/04 12:36:47;;;;;;;;;;;;;;;16.24;64.84;101158.91;7249697;19;153265;-59
2023/01/04 12:39:15;;;;;;;;;;;;;;;16.23;64.84;101146.06;7261728;19;154078;-59
2023/01/04 12:41:59;;;;;;;;;;;;;;;16.24;64.82;101166.41;7255615;19;153129;-57
2023/01/04 12:44:29;;;;;;;;;;;;;;;16.24;64.83;101144.13;7254761;19;154291;-57
2023/01/04 12:49:28;;;;;;;;;;;;;;;16.23;64.26;101162.78;7252820;19;154660;-57
2023/01/04 12:52:03;;;;;;;;;;;;;;;16.24;64.32;101152.47;7250838;19;152775;-57
2023/01/04 12:54:54;;;;;;;;;;;;;;;16.24;64.42;101147.75;7252210;19;154791;-57
2023/01/04 12:57:28;;;;;;;;;;;;;;;16.23;63.95;101160.00;7250833;19;153645;-57
2023/01/04 13:00:05;;;;;;;;;;;;;;;16.24;64.22;101149.69;7254591;19;153110;-57
2023/01/04 13:02:34;;;;;;;;;;;;;;;16.22;63.76;101160.25;7260485;19;153861;-57
2023/01/04 13:05:22;;;;;;;;;;;;;;;16.22;63.95;101158.31;7253716;19;153721;-57
2023/01/04 13:08:10;;;;;;;;;;;;;;;16.22;63.84;101147.16;7249694;19;153198;-57
2023/01/04 13:10:41;;;;;;;;;;;;;;;16.23;63.81;101150.81;7253884;19;154874;-57
2023/01/04 13:13:12;;;;;;;;;;;;;;;16.22;63.43;101146.31;7252267;19;153452;-57
2023/01/04 13:15:42;;;;;;;;;;;;;;;16.23;63.60;101153.59;7254043;19;153155;-57
2023/01/04 13:18:23;;;;;;;;;;;;;;;16.23;63.29;101154.44;7252872;19;154301;-57
2023/01/04 13:20:50;;;;;;;;;;;;;;;16.21;63.37;101148.31;7252373;19;153087;-57
2023/01/04 13:23:17;;;;;;;;;;;;;;;16.21;63.49;101148.31;7258033;19;153373;-57
2023/01/04 13:25:45;;;;;;;;;;;;;;;16.22;63.55;101152.75;7254618;19;154340;-57
2023/01/04 13:28:16;;;;;;;;;;;;;;;16.22;63.45;101146.31;7251160;19;154024;-57
2023/01/04 13:30:44;;;;;;;;;;;;;;;16.22;63.17;101149.97;7252032;19;154073;-57